Time;durP1;ratioP1;P1;durP2;ratioP2;P2;SDS_P1;SDS_P2;PMS_P1;PMS_P2;Temp;Humidity;BMP_temperature;BMP_pressure;BME280_temperature;BME280_humidity;BME280_pressure;Samples;Min_cycle;Max_cycle;Signal;HPM_P1;HPM_P2
2023/01/20 00:02:09;;;;;;;3.80;1.80;;;1.00;92.30;;;;;;6278977;22;20447;-73
2023/01/20 00:04:34;;;;;;;3.92;2.05;;;1.00;92.30;;;;;;6306202;22;20019;-73
2023/01/20 00:07:00;;;;;;;3.33;1.80;;;1.10;92.40;;;;;;6306351;22;20007;-73
2023/01/20 00:09:26;;;;;;;2.60;1.45;;;1.10;92.40;;;;;;6307014;22;20034;-73
2023/01/20 00:11:51;;;;;;;2.22;1.42;;;1.10;92.40;;;;;;6278931;22;20007;-70
2023/01/20 00:14:17;;;;;;;3.05;1.30;;;1.10;92.40;;;;;;6306597;22;20007;-74
2023/01/20 00:16:43;;;;;;;3.22;1.63;;;1.10;92.40;;;;;;6278864;22;20015;-75
2023/01/20 00:19:13;;;;;;;3.22;1.63;;;1.10;92.30;;;;;;6279616;22;20011;-74
2023/01/20 00:21:39;;;;;;;2.92;1.52;;;1.20;92.40;;;;;;6278870;22;20321;-74
2023/01/20 00:24:07;;;;;;;2.83;1.60;;;1.20;92.30;;;;;;6228328;22;20439;-74
2023/01/20 00:26:33;;;;;;;3.67;1.90;;;1.20;92.30;;;;;;6307101;22;20011;-74
2023/01/20 00:28:59;;;;;;;4.30;1.88;;;1.20;92.30;;;;;;6306327;22;20512;-71
2023/01/20 00:31:26;;;;;;;3.53;1.88;;;1.30;92.30;;;;;;6306997;22;20084;-74
2023/01/20 00:33:55;;;;;;;4.43;1.98;;;1.30;92.30;;;;;;6279091;22;20082;-74
2023/01/20 00:36:22;;;;;;;5.60;2.13;;;1.30;92.30;;;;;;6306944;22;20018;-75
2023/01/20 00:38:48;;;;;;;6.00;3.00;;;1.30;92.30;;;;;;6303783;22;20427;-74
2023/01/20 00:41:15;;;;;;;6.05;2.95;;;1.30;92.20;;;;;;6306299;22;20041;-74
2023/01/20 00:43:41;;;;;;;6.53;3.33;;;1.30;92.20;;;;;;6306227;22;20428;-74
2023/01/20 00:46:07;;;;;;;5.82;2.83;;;1.40;92.20;;;;;;6306537;22;20011;-74
2023/01/20 00:48:33;;;;;;;6.03;2.97;;;1.30;92.20;;;;;;6279216;22;20012;-74
2023/01/20 00:50:59;;;;;;;6.40;2.92;;;1.40;92.30;;;;;;6279228;22;20018;-74
2023/01/20 00:53:25;;;;;;;6.28;2.97;;;1.40;92.20;;;;;;6278687;22;20015;-75
2023/01/20 00:55:53;;;;;;;6.35;2.95;;;1.40;92.20;;;;;;6253129;22;20007;-74
2023/01/20 00:58:19;;;;;;;6.10;2.95;;;1.40;92.20;;;;;;6306084;22;20008;-75
2023/01/20 01:00:46;;;;;;;7.63;2.63;;;1.50;92.30;;;;;;6306473;22;20021;-74
2023/01/20 01:03:12;;;;;;;5.72;3.00;;;1.40;92.20;;;;;;6305564;22;20014;-72
2023/01/20 01:05:37;;;;;;;5.35;2.72;;;1.50;92.20;;;;;;6278264;22;20011;-75
2023/01/20 01:08:04;;;;;;;5.72;2.75;;;1.50;92.30;;;;;;6279619;22;20473;-75
2023/01/20 01:10:29;;;;;;;4.95;2.47;;;1.40;92.20;;;;;;6307203;22;20037;-72
2023/01/20 01:12:55;;;;;;;5.90;3.03;;;1.50;92.30;;;;;;6307400;22;20335;-75
2023/01/20 01:15:21;;;;;;;7.30;3.38;;;1.50;92.30;;;;;;6280303;22;20040;-75
2023/01/20 01:17:46;;;;;;;7.13;3.50;;;1.40;92.20;;;;;;6307727;22;20160;-74
2023/01/20 01:20:12;;;;;;;5.72;2.80;;;1.40;92.20;;;;;;6279906;22;20094;-75
2023/01/20 01:22:38;;;;;;;5.38;3.03;;;1.40;92.30;;;;;;6307155;22;20011;-74
2023/01/20 01:25:04;;;;;;;6.03;2.72;;;1.40;92.30;;;;;;6306983;22;20035;-74
2023/01/20 01:27:30;;;;;;;5.13;2.83;;;1.50;92.30;;;;;;6307335;22;20011;-72
2023/01/20 01:29:56;;;;;;;5.57;2.60;;;1.50;92.30;;;;;;6280014;22;20502;-72
2023/01/20 01:32:22;;;;;;;6.40;3.25;;;1.40;92.30;;;;;;6279561;22;20435;-74
2023/01/20 01:34:48;;;;;;;5.82;3.08;;;1.50;92.30;;;;;;6307027;22;20015;-74
2023/01/20 01:37:14;;;;;;;3.80;1.70;;;1.40;92.30;;;;;;6307279;22;20039;-74
2023/01/20 01:39:39;;;;;;;5.03;2.22;;;1.50;92.30;;;;;;6280122;22;20316;-74
2023/01/20 01:42:15;;;;;;;4.80;2.30;;;1.50;92.30;;;;;;6306753;22;20018;-74
2023/01/20 01:45:19;;;;;;;6.28;2.42;;;1.50;92.30;;;;;;6306867;22;20003;-71
2023/01/20 01:47:58;;;;;;;4.28;2.22;;;1.50;92.30;;;;;;6274120;22;20026;-74
2023/01/20 01:50:39;;;;;;;4.88;2.47;;;1.50;92.30;;;;;;6307203;22;20458;-73
2023/01/20 01:53:06;;;;;;;5.00;2.20;;;1.50;92.30;;;;;;6278424;22;20076;-74
2023/01/20 01:55:35;;;;;;;6.10;2.83;;;1.50;92.30;;;;;;6254221;22;20245;-75
2023/01/20 01:58:03;;;;;;;5.22;2.33;;;1.50;92.30;;;;;;6279561;22;20103;-74
2023/01/20 02:00:29;;;;;;;5.28;3.03;;;1.60;92.30;;;;;;6280033;22;20111;-74
2023/01/20 02:02:56;;;;;;;5.93;2.78;;;1.50;92.30;;;;;;6307236;22;20446;-71
2023/01/20 02:05:24;;;;;;;5.13;2.67;;;1.50;92.30;;;;;;6307033;22;20015;-72
2023/01/20 02:07:50;;;;;;;6.13;3.00;;;1.40;92.20;;;;;;6306727;22;20424;-73
2023/01/20 02:10:16;;;;;;;6.38;3.20;;;1.40;92.30;;;;;;6306764;22;20003;-74
2023/01/20 02:12:48;;;;;;;4.43;2.40;;;1.40;92.30;;;;;;6306769;22;20060;-74
2023/01/20 02:15:14;;;;;;;5.13;2.40;;;1.40;92.30;;;;;;6306806;22;20010;-73
2023/01/20 02:17:55;;;;;;;5.63;2.67;;;1.40;92.30;;;;;;6306725;22;20092;-71
2023/01/20 02:20:57;;;;;;;4.97;2.50;;;1.40;92.40;;;;;;6279733;22;20015;-71
2023/01/20 02:23:42;;;;;;;3.78;2.05;;;1.40;92.40;;;;;;6280022;22;20372;-73
2023/01/20 02:26:38;;;;;;;3.95;2.15;;;1.40;92.30;;;;;;6306112;22;20387;-71
2023/01/20 02:29:31;;;;;;;4.85;2.20;;;1.40;92.30;;;;;;6304631;22;20427;-73
2023/01/20 02:32:07;;;;;;;4.45;2.10;;;1.40;92.30;;;;;;6306939;22;20049;-73
2023/01/20 02:34:44;;;;;;;4.57;2.13;;;1.50;92.30;;;;;;6280669;22;20015;-74
2023/01/20 02:37:17;;;;;;;3.85;1.88;;;1.50;92.30;;;;;;6306020;22;20015;-71
2023/01/20 02:40:12;;;;;;;3.38;1.88;;;1.40;92.30;;;;;;6279319;22;20090;-74
2023/01/20 02:42:46;;;;;;;4.20;2.00;;;1.50;92.40;;;;;;6305034;22;20011;-71
2023/01/20 02:45:22;;;;;;;3.78;1.83;;;1.40;92.30;;;;;;6306673;22;20007;-73
2023/01/20 02:47:57;;;;;;;4.15;1.88;;;1.50;92.40;;;;;;6306918;22;20090;-74
2023/01/20 02:50:37;;;;;;;3.03;1.73;;;1.50;92.40;;;;;;6277778;22;20003;-74
2023/01/20 02:53:04;;;;;;;3.72;1.80;;;1.50;92.40;;;;;;6276684;22;20007;-74
2023/01/20 02:55:45;;;;;;;4.53;2.38;;;1.50;92.40;;;;;;6306444;22;20008;-72
2023/01/20 02:58:21;;;;;;;5.97;2.55;;;1.50;92.30;;;;;;6305661;22;20007;-71
2023/01/20 03:00:52;;;;;;;4.38;2.28;;;1.40;92.40;;;;;;6303549;22;20105;-71
2023/01/20 03:03:24;;;;;;;5.30;2.47;;;1.50;92.40;;;;;;6303590;22;20133;-74
2023/01/20 03:05:53;;;;;;;;;;;1.50;92.40;;;;;;6277059;22;20007;-74
2023/01/20 03:08:20;;;;;;;3.85;1.92;;;1.50;92.40;;;;;;6278994;22;19957;-71
2023/01/20 03:10:48;;;;;;;3.45;1.73;;;1.50;92.40;;;;;;6306088;22;20007;-71
2023/01/20 03:13:25;;;;;;;4.50;1.85;;;1.50;92.40;;;;;;6306255;22;20034;-72
2023/01/20 03:16:01;;;;;;;3.72;1.90;;;1.40;92.40;;;;;;6280657;22;20094;-71
2023/01/20 03:18:29;;;;;;;3.50;1.65;;;1.40;92.40;;;;;;6304932;22;20011;-73
2023/01/20 03:20:57;;;;;;;5.10;2.28;;;1.50;92.40;;;;;;6306109;22;20404;-71
2023/01/20 03:23:24;;;;;;;5.20;2.25;;;1.50;92.40;;;;;;6306369;22;20021;-71
2023/01/20 03:25:50;;;;;;;5.15;2.45;;;1.50;92.40;;;;;;6306152;22;20015;-71
2023/01/20 03:28:16;;;;;;;4.95;2.50;;;1.40;92.40;;;;;;6306065;22;20011;-74
2023/01/20 03:30:41;;;;;;;4.85;2.65;;;1.40;92.40;;;;;;6305528;22;20377;-72
2023/01/20 03:33:08;;;;;;;7.03;2.95;;;1.40;92.40;;;;;;6279093;22;20003;-71
2023/01/20 03:35:34;;;;;;;5.53;2.35;;;1.50;92.40;;;;;;6279399;22;20007;-71
2023/01/20 03:38:00;;;;;;;6.65;3.00;;;1.40;92.50;;;;;;6279151;22;20047;-73
2023/01/20 03:40:30;;;;;;;6.00;2.63;;;1.40;92.50;;;;;;6279004;22;20018;-74
2023/01/20 03:43:05;;;;;;;6.00;2.33;;;1.40;92.40;;;;;;6277475;22;20021;-74
2023/01/20 03:45:42;;;;;;;7.38;3.17;;;1.50;92.50;;;;;;6305064;22;20010;-73
2023/01/20 03:48:23;;;;;;;7.93;3.25;;;1.40;92.40;;;;;;6276638;22;20335;-73
2023/01/20 03:50:55;;;;;;;6.38;3.05;;;1.40;92.40;;;;;;6305437;22;20018;-72
2023/01/20 03:54:00;;;;;;;8.40;4.03;;;1.40;92.40;;;;;;6278823;22;20316;-74
2023/01/20 03:56:38;;;;;;;8.38;3.65;;;1.40;92.40;;;;;;6261766;22;20018;-73
2023/01/20 03:59:07;;;;;;;7.85;3.33;;;1.30;92.50;;;;;;6277867;22;20018;-73
2023/01/20 04:01:38;;;;;;;5.93;3.00;;;1.40;92.50;;;;;;6306104;22;20018;-73
2023/01/20 04:04:06;;;;;;;7.35;2.97;;;1.40;92.40;;;;;;6306048;22;20018;-73
2023/01/20 04:06:33;;;;;;;7.35;3.20;;;1.40;92.50;;;;;;6305898;22;20015;-73
2023/01/20 04:09:05;;;;;;;8.98;3.65;;;1.30;92.50;;;;;;6278616;22;20292;-73
2023/01/20 04:11:32;;;;;;;7.43;3.50;;;1.30;92.50;;;;;;6276622;22;20009;-73
2023/01/20 04:13:57;;;;;;;7.97;3.78;;;1.40;92.50;;;;;;6305998;22;20004;-73
2023/01/20 04:16:24;;;;;;;8.07;3.78;;;1.30;92.50;;;;;;6305796;22;20007;-73
2023/01/20 04:18:50;;;;;;;8.93;3.75;;;1.30;92.50;;;;;;6306555;22;20014;-73
2023/01/20 04:21:32;;;;;;;9.18;3.75;;;1.30;92.50;;;;;;6278835;22;20011;-73
2023/01/20 04:24:15;;;;;;;9.82;4.15;;;1.30;92.50;;;;;;6305942;22;20007;-73
2023/01/20 04:26:41;;;;;;;9.02;3.90;;;1.30;92.50;;;;;;6253235;22;20029;-73
2023/01/20 04:29:07;;;;;;;9.75;4.10;;;1.30;92.50;;;;;;6279139;22;20007;-74
2023/01/20 04:31:35;;;;;;;8.48;3.97;;;1.30;92.50;;;;;;6278866;22;20011;-73
2023/01/20 04:34:01;;;;;;;8.88;4.25;;;1.30;92.50;;;;;;6276802;22;20034;-73
2023/01/20 04:36:27;;;;;;;7.95;3.88;;;1.30;92.50;;;;;;6306050;22;20007;-73
2023/01/20 04:38:52;;;;;;;6.60;3.28;;;1.30;92.50;;;;;;6305982;22;20014;-74
2023/01/20 04:41:18;;;;;;;7.30;3.42;;;1.30;92.50;;;;;;6278452;22;20039;-73
2023/01/20 04:43:45;;;;;;;7.97;3.67;;;1.30;92.50;;;;;;6278814;22;20042;-73
2023/01/20 04:46:12;;;;;;;9.45;4.07;;;1.40;92.50;;;;;;6305767;22;20011;-73
2023/01/20 04:48:38;;;;;;;7.45;3.17;;;1.30;92.50;;;;;;6278503;22;20004;-73
2023/01/20 04:51:05;;;;;;;8.65;3.08;;;1.30;92.50;;;;;;6279011;22;20446;-73
2023/01/20 04:53:31;;;;;;;7.00;3.00;;;1.30;92.50;;;;;;6278667;22;20003;-73
2023/01/20 04:55:57;;;;;;;7.45;2.85;;;1.30;92.50;;;;;;6306591;22;21115;-73
2023/01/20 04:58:22;;;;;;;6.75;2.88;;;1.30;92.50;;;;;;6306322;22;20003;-73
2023/01/20 05:00:48;;;;;;;6.05;2.60;;;1.30;92.50;;;;;;6306007;22;19999;-73
2023/01/20 05:03:13;;;;;;;7.00;2.78;;;1.40;92.50;;;;;;6306761;22;20021;-73
2023/01/20 05:05:39;;;;;;;7.53;3.00;;;1.30;92.50;;;;;;6306382;22;20010;-73
2023/01/20 05:08:05;;;;;;;5.05;2.40;;;1.40;92.50;;;;;;6306074;22;20524;-74
2023/01/20 05:10:31;;;;;;;6.25;3.05;;;1.30;92.50;;;;;;6306092;22;20007;-71
2023/01/20 05:12:58;;;;;;;6.22;2.53;;;1.40;92.50;;;;;;6305832;22;20060;-74
2023/01/20 05:15:23;;;;;;;5.45;2.40;;;1.40;92.50;;;;;;6305931;22;20014;-74
2023/01/20 05:17:49;;;;;;;4.78;2.20;;;1.50;92.50;;;;;;6305803;22;20003;-73
2023/01/20 05:20:15;;;;;;;5.60;2.50;;;1.40;92.50;;;;;;6306307;22;20007;-74
2023/01/20 05:22:40;;;;;;;5.80;2.33;;;1.40;92.50;;;;;;6305832;22;20341;-74
2023/01/20 05:25:07;;;;;;;5.40;2.38;;;1.40;92.50;;;;;;6305719;22;20011;-73
2023/01/20 05:27:34;;;;;;;5.63;2.08;;;1.40;92.50;;;;;;6305554;22;20401;-73
2023/01/20 05:30:00;;;;;;;5.70;2.10;;;1.40;92.50;;;;;;6278115;22;20007;-74
2023/01/20 05:32:25;;;;;;;4.60;1.70;;;1.40;92.50;;;;;;6305827;22;20029;-74
2023/01/20 05:34:51;;;;;;;5.28;2.13;;;1.40;92.50;;;;;;6278928;22;20007;-71
2023/01/20 05:37:17;;;;;;;5.22;2.53;;;1.40;92.50;;;;;;6305965;22;20019;-74
2023/01/20 05:39:43;;;;;;;5.47;2.33;;;1.40;92.50;;;;;;6305641;22;20092;-74
2023/01/20 05:42:08;;;;;;;6.60;3.00;;;1.40;92.50;;;;;;6278551;22;20011;-74
2023/01/20 05:44:34;;;;;;;7.53;3.15;;;1.40;92.50;;;;;;6278443;22;20092;-73
2023/01/20 05:47:01;;;;;;;5.70;2.40;;;1.40;92.40;;;;;;6278504;22;20018;-73
2023/01/20 05:49:26;;;;;;;5.80;3.00;;;1.40;92.50;;;;;;6306214;22;20008;-73
2023/01/20 05:51:52;;;;;;;5.07;2.65;;;1.30;92.50;;;;;;6278277;22;20010;-74
2023/01/20 05:54:18;;;;;;;5.90;2.92;;;1.30;92.50;;;;;;6279402;22;20007;-74
2023/01/20 05:56:46;;;;;;;6.10;2.65;;;1.30;92.50;;;;;;6254126;22;20082;-71
2023/01/20 05:59:11;;;;;;;7.28;2.75;;;1.40;92.50;;;;;;6304124;22;20007;-71
2023/01/20 06:01:37;;;;;;;4.78;2.25;;;1.30;92.50;;;;;;6279523;22;20042;-71
2023/01/20 06:04:03;;;;;;;5.03;2.30;;;1.30;92.50;;;;;;6307051;22;20434;-71
2023/01/20 06:06:28;;;;;;;4.57;2.10;;;1.30;92.50;;;;;;6253804;22;20017;-73
2023/01/20 06:08:54;;;;;;;3.40;1.73;;;1.40;92.50;;;;;;6279575;22;20068;-74
2023/01/20 06:11:20;;;;;;;3.85;1.75;;;1.40;92.50;;;;;;6307182;22;20052;-73
2023/01/20 06:13:47;;;;;;;3.90;2.03;;;1.40;92.50;;;;;;6228873;22;20007;-73
2023/01/20 06:16:13;;;;;;;5.72;2.30;;;1.40;92.50;;;;;;6307201;22;20007;-74
2023/01/20 06:18:39;;;;;;;5.00;2.10;;;1.40;92.50;;;;;;6306903;22;20064;-74
2023/01/20 06:21:05;;;;;;;3.97;1.85;;;1.40;92.50;;;;;;6307263;22;20011;-72
2023/01/20 06:23:31;;;;;;;5.20;2.28;;;1.30;92.50;;;;;;6248383;22;20034;-71
2023/01/20 06:25:59;;;;;;;4.05;2.17;;;1.30;92.50;;;;;;6279711;22;20044;-72
2023/01/20 06:28:25;;;;;;;4.43;2.10;;;1.30;92.50;;;;;;6280576;22;20056;-71
2023/01/20 06:30:50;;;;;;;6.13;2.60;;;1.30;92.50;;;;;;6253975;22;20090;-73
2023/01/20 06:33:16;;;;;;;5.35;2.17;;;1.30;92.50;;;;;;6279436;22;20326;-71
2023/01/20 06:35:41;;;;;;;5.10;2.30;;;1.30;92.50;;;;;;6306777;22;20015;-71
2023/01/20 06:38:07;;;;;;;6.07;2.80;;;1.30;92.50;;;;;;6306840;22;20029;-71
2023/01/20 06:40:33;;;;;;;6.78;2.97;;;1.30;92.50;;;;;;6279605;22;20007;-72
2023/01/20 06:42:58;;;;;;;6.10;2.80;;;1.30;92.50;;;;;;6307455;22;20030;-71
2023/01/20 06:45:24;;;;;;;5.28;2.22;;;1.30;92.50;;;;;;6251889;22;20093;-72
2023/01/20 06:47:50;;;;;;;5.82;2.58;;;1.30;92.50;;;;;;6279210;22;20018;-71
2023/01/20 06:50:16;;;;;;;6.53;2.88;;;1.40;92.50;;;;;;6279159;22;20007;-72
2023/01/20 06:52:41;;;;;;;5.50;2.58;;;1.30;92.50;;;;;;6279423;22;20403;-72
2023/01/20 06:55:07;;;;;;;7.35;2.50;;;1.30;92.50;;;;;;6279546;22;20007;-71
2023/01/20 06:57:33;;;;;;;6.50;3.10;;;1.30;92.50;;;;;;6306847;22;20037;-72
2023/01/20 06:59:58;;;;;;;8.40;3.60;;;1.30;92.70;;;;;;6307122;22;20034;-72
2023/01/20 07:02:24;;;;;;;7.10;3.70;;;1.30;92.50;;;;;;6279325;22;20014;-72
2023/01/20 07:04:52;;;;;;;6.20;3.17;;;1.30;92.50;;;;;;6307521;22;20007;-71
2023/01/20 07:07:17;;;;;;;5.57;2.67;;;1.40;92.50;;;;;;6279951;22;20019;-71
2023/01/20 07:09:43;;;;;;;6.72;2.75;;;1.30;92.40;;;;;;6306674;22;20053;-71
2023/01/20 07:12:09;;;;;;;6.88;2.88;;;1.30;92.40;;;;;;6280326;22;20014;-72
2023/01/20 07:14:34;;;;;;;7.70;3.22;;;1.40;92.50;;;;;;6306665;22;20003;-72
2023/01/20 07:17:00;;;;;;;7.60;3.22;;;1.40;92.40;;;;;;6254002;22;20071;-72
2023/01/20 07:19:25;;;;;;;8.48;3.35;;;1.40;92.40;;;;;;6306501;22;20011;-72
2023/01/20 07:21:51;;;;;;;7.82;3.20;;;1.30;92.40;;;;;;6253935;22;20038;-71
2023/01/20 07:24:17;;;;;;;7.15;3.08;;;1.30;92.40;;;;;;6253573;22;20007;-72
2023/01/20 07:26:43;;;;;;;6.50;2.95;;;1.40;92.50;;;;;;6279257;22;20065;-72
2023/01/20 07:29:08;;;;;;;5.93;2.83;;;1.40;92.50;;;;;;6306397;22;20007;-72
2023/01/20 07:31:34;;;;;;;6.47;3.00;;;1.50;92.50;;;;;;6279312;22;20014;-72
2023/01/20 07:33:59;;;;;;;5.70;2.75;;;1.40;92.40;;;;;;6279691;22;20038;-71
2023/01/20 07:36:25;;;;;;;8.95;4.03;;;1.40;92.40;;;;;;6306870;22;20011;-71
2023/01/20 07:38:52;;;;;;;8.98;3.70;;;1.40;92.40;;;;;;6306829;22;20883;-72
2023/01/20 07:41:22;;;;;;;7.05;3.20;;;1.40;92.40;;;;;;6253733;22;20380;-72
2023/01/20 07:43:50;;;;;;;8.20;3.83;;;1.40;92.70;;;;;;6281064;22;20019;-72
2023/01/20 07:46:16;;;;;;;7.75;3.67;;;1.40;92.40;;;;;;6306688;22;20043;-72
2023/01/20 07:48:42;;;;;;;8.00;3.80;;;1.40;92.40;;;;;;6280447;22;20022;-72
2023/01/20 07:51:10;;;;;;;6.55;2.92;;;1.40;92.40;;;;;;6253722;22;20038;-72
2023/01/20 07:53:46;;;;;;;8.52;3.60;;;1.40;92.40;;;;;;6306990;22;20004;-72
2023/01/20 07:56:14;;;;;;;8.45;3.40;;;1.40;92.40;;;;;;6279811;22;20013;-72
2023/01/20 07:58:41;;;;;;;6.30;2.70;;;1.40;92.40;;;;;;6280033;22;20018;-72
2023/01/20 08:01:16;;;;;;;5.32;2.50;;;1.50;92.40;;;;;;6279081;22;20012;-72
2023/01/20 08:03:43;;;;;;;5.18;2.30;;;1.50;92.40;;;;;;6279327;22;20015;-72
2023/01/20 08:06:11;;;;;;;5.30;2.30;;;1.60;92.40;;;;;;6306355;22;20061;-72
2023/01/20 08:08:37;;;;;;;7.53;2.42;;;1.60;92.30;;;;;;6279013;22;20010;-72
2023/01/20 08:11:04;;;;;;;5.10;2.08;;;1.60;92.30;;;;;;6306346;22;20078;-72
2023/01/20 08:13:30;;;;;;;4.95;2.00;;;1.60;92.30;;;;;;6306380;22;19999;-72
2023/01/20 08:16:02;;;;;;;4.85;1.98;;;1.60;92.30;;;;;;6306413;22;20013;-72
2023/01/20 08:18:28;;;;;;;4.47;1.88;;;1.60;92.30;;;;;;6306260;22;20011;-72
2023/01/20 08:20:53;;;;;;;5.57;2.28;;;1.60;92.30;;;;;;6279205;22;20029;-71
2023/01/20 08:23:22;;;;;;;4.50;2.00;;;1.50;92.30;;;;;;6253561;22;20007;-72
2023/01/20 08:25:47;;;;;;;5.65;2.05;;;1.60;92.40;;;;;;6278855;22;20011;-72
2023/01/20 08:28:13;;;;;;;4.88;2.20;;;1.60;92.40;;;;;;6306215;22;20019;-72
2023/01/20 08:30:39;;;;;;;4.70;2.10;;;1.70;92.40;;;;;;6306013;22;20010;-72
2023/01/20 08:33:04;;;;;;;4.78;2.17;;;1.70;92.40;;;;;;6279044;22;20078;-72
2023/01/20 08:35:30;;;;;;;5.63;2.22;;;1.70;92.40;;;;;;6279117;22;20492;-72
2023/01/20 08:37:56;;;;;;;4.68;2.20;;;1.70;92.40;;;;;;6306314;22;20007;-72
2023/01/20 08:40:21;;;;;;;4.70;1.80;;;1.70;92.40;;;;;;6306489;22;20022;-72
2023/01/20 08:42:47;;;;;;;5.88;2.10;;;1.70;92.40;;;;;;6279209;22;20438;-71
2023/01/20 08:45:13;;;;;;;6.60;2.75;;;1.70;92.30;;;;;;6306180;22;20092;-72
2023/01/20 08:47:43;;;;;;;7.10;2.78;;;1.70;92.30;;;;;;6306856;22;20420;-73
2023/01/20 08:50:10;;;;;;;6.45;2.70;;;1.70;92.30;;;;;;6279902;22;20007;-72
2023/01/20 08:52:36;;;;;;;6.03;2.50;;;1.80;92.40;;;;;;6227913;22;20007;-72
2023/01/20 08:55:02;;;;;;;6.03;2.67;;;1.70;92.30;;;;;;6278682;22;20095;-72
2023/01/20 08:57:28;;;;;;;5.70;2.28;;;1.70;92.30;;;;;;6278784;22;20026;-72
2023/01/20 08:59:54;;;;;;;4.32;1.98;;;1.80;92.30;;;;;;6306503;22;20003;-73
2023/01/20 09:02:21;;;;;;;4.60;2.28;;;1.80;92.30;;;;;;6278810;22;20335;-73
2023/01/20 09:04:48;;;;;;;5.57;2.50;;;1.80;92.30;;;;;;6306621;22;20015;-71
2023/01/20 09:07:15;;;;;;;5.05;2.00;;;1.90;92.30;;;;;;6305811;22;20007;-73
2023/01/20 09:09:41;;;;;;;4.80;1.95;;;1.80;92.30;;;;;;6278657;22;20344;-73
2023/01/20 09:12:07;;;;;;;5.05;2.35;;;1.80;92.30;;;;;;6279242;22;20007;-72
2023/01/20 09:14:32;;;;;;;4.13;1.80;;;1.90;92.30;;;;;;6305928;22;20004;-72
2023/01/20 09:17:00;;;;;;;4.80;2.00;;;1.90;92.30;;;;;;6306580;22;20011;-72
2023/01/20 09:19:25;;;;;;;3.53;1.70;;;1.90;92.30;;;;;;6305967;22;20071;-72
2023/01/20 09:21:51;;;;;;;4.03;1.98;;;1.90;92.30;;;;;;6305950;22;20500;-72
2023/01/20 09:24:17;;;;;;;5.93;2.25;;;1.90;92.30;;;;;;6278483;22;20037;-73
2023/01/20 09:26:43;;;;;;;5.55;2.38;;;2.00;92.30;;;;;;6305552;22;20007;-73
2023/01/20 09:29:11;;;;;;;3.47;1.70;;;1.90;92.30;;;;;;6278895;22;20043;-73
2023/01/20 09:31:42;;;;;;;4.43;2.10;;;1.90;92.60;;;;;;6307830;22;20841;-72
2023/01/20 09:34:09;;;;;;;3.70;1.67;;;1.90;92.30;;;;;;6307151;22;20035;-73
2023/01/20 09:36:35;;;;;;;4.45;2.03;;;1.80;92.30;;;;;;6279880;22;20015;-72
2023/01/20 09:44:41;;;;;;;7.30;2.45;;;1.80;92.30;;;;;;6306876;22;20107;-72
2023/01/20 09:47:22;;;;;;;5.40;2.53;;;1.80;92.40;;;;;;6307398;22;20106;-73
2023/01/20 09:53:33;;;;;;;5.68;2.30;;;1.90;92.40;;;;;;6304936;22;20019;-73
2023/01/20 09:56:03;;;;;;;5.40;2.40;;;1.90;92.30;;;;;;6285356;22;20027;-73
2023/01/20 09:59:01;;;;;;;5.38;2.53;;;2.00;92.30;;;;;;6279601;22;20019;-72
2023/01/20 10:01:35;;;;;;;3.92;1.80;;;2.00;92.30;;;;;;6287192;22;20007;-72
2023/01/20 10:04:22;;;;;;;3.85;1.85;;;2.00;92.30;;;;;;6306940;22;20011;-72
2023/01/20 10:06:53;;;;;;;4.28;2.05;;;2.00;92.30;;;;;;6276655;22;20335;-73
2023/01/20 10:09:37;;;;;;;5.38;2.28;;;2.00;92.20;;;;;;6304036;22;20007;-73
2023/01/20 10:12:17;;;;;;;3.97;1.65;;;2.00;92.30;;;;;;6280176;22;20012;-72
2023/01/20 10:14:50;;;;;;;4.57;1.90;;;2.00;92.30;;;;;;6305463;22;20343;-72
2023/01/20 10:17:32;;;;;;;3.92;1.80;;;2.00;92.50;;;;;;6307359;22;20011;-73
2023/01/20 10:20:13;;;;;;;3.63;1.80;;;2.00;92.30;;;;;;6305702;22;20335;-72
2023/01/20 10:22:50;;;;;;;4.82;2.35;;;2.10;92.30;;;;;;6304556;22;20011;-73
2023/01/20 10:25:36;;;;;;;4.05;1.80;;;2.10;92.30;;;;;;6305765;22;20015;-73
2023/01/20 10:28:10;;;;;;;3.15;1.60;;;2.10;92.30;;;;;;6306559;22;20015;-73
2023/01/20 10:30:37;;;;;;;3.08;1.70;;;2.10;92.30;;;;;;6279383;22;20003;-73
2023/01/20 10:33:12;;;;;;;4.15;1.75;;;2.10;92.30;;;;;;6306893;22;20790;-73
2023/01/20 10:35:42;;;;;;;3.75;2.10;;;2.20;92.30;;;;;;6253915;22;20003;-73
2023/01/20 10:38:20;;;;;;;5.65;2.30;;;2.10;92.20;;;;;;6307540;22;20466;-72
2023/01/20 10:40:52;;;;;;;3.67;1.70;;;2.20;92.30;;;;;;6306609;22;20125;-72
2023/01/20 10:43:19;;;;;;;4.85;2.10;;;2.20;92.20;;;;;;6307394;22;20031;-72
2023/01/20 10:46:19;;;;;;;5.03;2.20;;;2.20;92.20;;;;;;6279364;22;20104;-72
2023/01/20 10:49:24;;;;;;;3.55;1.70;;;2.30;92.30;;;;;;6304523;22;20438;-72
2023/01/20 10:52:20;;;;;;;3.72;1.90;;;2.30;92.30;;;;;;6285646;22;20003;-73
2023/01/20 10:55:08;;;;;;;3.92;1.92;;;2.30;92.20;;;;;;6306576;22;20060;-72
2023/01/20 10:57:35;;;;;;;3.83;1.77;;;2.30;92.20;;;;;;6279503;22;20098;-72
2023/01/20 11:00:06;;;;;;;3.33;1.48;;;2.30;92.20;;;;;;6307281;22;20034;-72
2023/01/20 11:02:34;;;;;;;4.25;1.80;;;2.40;92.20;;;;;;6304809;22;20014;-72
2023/01/20 11:05:20;;;;;;;4.03;1.92;;;2.40;92.10;;;;;;6306814;22;20011;-73
2023/01/20 11:07:47;;;;;;;4.28;2.08;;;2.50;92.20;;;;;;6276832;22;20463;-72
2023/01/20 11:10:18;;;;;;;3.45;1.58;;;2.50;92.20;;;;;;6303588;22;20322;-72
2023/01/20 11:12:51;;;;;;;3.03;1.52;;;2.50;92.10;;;;;;6303825;22;20007;-73
2023/01/20 11:15:21;;;;;;;3.95;1.67;;;2.50;92.10;;;;;;6304384;22;20014;-73
2023/01/20 11:18:20;;;;;;;5.20;2.33;;;2.50;92.10;;;;;;6277237;22;20090;-72
2023/01/20 11:20:50;;;;;;;5.55;2.47;;;2.60;92.10;;;;;;6304453;22;20035;-73
2023/01/20 11:23:46;;;;;;;4.82;2.20;;;2.50;92.10;;;;;;6303507;22;20015;-72
2023/01/20 11:26:33;;;;;;;4.47;2.45;;;2.50;92.20;;;;;;6278253;22;20027;-72
2023/01/20 11:29:02;;;;;;;4.00;2.05;;;2.60;92.20;;;;;;6278582;22;20003;-72
2023/01/20 11:31:46;;;;;;;4.82;2.20;;;2.50;92.10;;;;;;6306321;22;20007;-73
2023/01/20 11:34:32;;;;;;;4.25;2.03;;;2.60;92.10;;;;;;6305134;22;20007;-73
2023/01/20 11:37:15;;;;;;;4.85;1.90;;;2.70;92.10;;;;;;6305657;22;20015;-73
2023/01/20 11:39:59;;;;;;;4.43;2.03;;;2.70;92.10;;;;;;6277585;22;20015;-73
2023/01/20 11:42:40;;;;;;;4.45;1.95;;;2.80;92.10;;;;;;6277226;22;20015;-72
2023/01/20 11:45:27;;;;;;;3.55;1.70;;;2.70;92.00;;;;;;6304164;22;20007;-72
2023/01/20 11:48:04;;;;;;;4.00;1.70;;;2.80;92.00;;;;;;6280517;22;20439;-72
2023/01/20 11:50:45;;;;;;;3.53;1.70;;;2.80;92.00;;;;;;6306260;22;20578;-73
2023/01/20 11:53:18;;;;;;;4.82;2.25;;;2.90;92.00;;;;;;6276957;22;20439;-73
2023/01/20 11:55:54;;;;;;;3.17;1.67;;;2.90;92.00;;;;;;6280271;22;20003;-73
2023/01/20 11:58:23;;;;;;;4.65;2.10;;;2.80;92.00;;;;;;6279098;22;20031;-73
2023/01/20 12:00:57;;;;;;;2.70;1.50;;;2.90;92.00;;;;;;6306637;22;20327;-73
2023/01/20 12:03:56;;;;;;;3.40;1.70;;;2.90;92.00;;;;;;6276196;22;20428;-72
2023/01/20 12:06:26;;;;;;;3.38;1.60;;;2.90;92.00;;;;;;6303133;22;20019;-72
2023/01/20 12:09:14;;;;;;;3.63;1.60;;;2.90;92.00;;;;;;6306553;22;20003;-72
2023/01/20 12:11:51;;;;;;;2.45;1.48;;;2.90;92.00;;;;;;6304344;22;20074;-73
2023/01/20 12:14:30;;;;;;;3.50;1.60;;;3.00;92.10;;;;;;6305743;22;20003;-73
2023/01/20 12:17:13;;;;;;;3.30;1.77;;;3.00;92.10;;;;;;6303891;22;20007;-72
2023/01/20 12:19:58;;;;;;;3.05;1.48;;;3.00;92.00;;;;;;6303255;22;20086;-72
2023/01/20 12:22:33;;;;;;;2.53;1.25;;;2.90;92.10;;;;;;6306505;22;20018;-72
2023/01/20 12:25:13;;;;;;;3.47;1.48;;;3.00;92.10;;;;;;6304014;22;20015;-72
2023/01/20 12:27:45;;;;;;;2.70;1.40;;;3.00;92.00;;;;;;6305985;22;20039;-72
2023/01/20 12:30:26;;;;;;;2.30;1.15;;;3.00;92.00;;;;;;6303107;22;20442;-72
2023/01/20 12:32:51;;;;;;;2.35;1.40;;;3.10;92.10;;;;;;6305309;22;20791;-72
2023/01/20 12:35:21;;;;;;;3.28;1.73;;;3.10;92.00;;;;;;6278795;22;20011;-72
2023/01/20 12:37:55;;;;;;;2.33;1.10;;;3.10;92.00;;;;;;6306190;22;20427;-72
2023/01/20 12:40:39;;;;;;;3.95;1.55;;;3.10;92.00;;;;;;6279795;22;20107;-72
2023/01/20 12:43:26;;;;;;;1.75;1.00;;;3.10;92.10;;;;;;6305201;22;20077;-72
2023/01/20 12:46:22;;;;;;;2.55;1.23;;;3.20;92.10;;;;;;6277337;22;20054;-72
2023/01/20 12:49:17;;;;;;;3.15;1.15;;;3.10;92.10;;;;;;6303753;22;20011;-72
2023/01/20 12:52:04;;;;;;;2.47;1.23;;;3.20;92.10;;;;;;6305833;22;20036;-72
2023/01/20 12:54:59;;;;;;;2.25;1.27;;;3.10;92.10;;;;;;6306144;22;20339;-73
2023/01/20 12:57:47;;;;;;;1.73;1.05;;;3.10;92.10;;;;;;6304348;22;20054;-72
2023/01/20 13:00:37;;;;;;;1.52;0.95;;;3.20;92.10;;;;;;6305454;22;20014;-72
2023/01/20 13:03:37;;;;;;;2.15;1.08;;;3.20;92.10;;;;;;6283131;22;20031;-72
2023/01/20 13:06:38;;;;;;;1.67;1.08;;;3.20;92.10;;;;;;6276563;22;20375;-72
2023/01/20 13:09:23;;;;;;;2.60;1.38;;;3.20;92.10;;;;;;6303939;22;20450;-72
2023/01/20 13:12:17;;;;;;;1.30;0.98;;;3.20;92.10;;;;;;6303972;22;20034;-72
2023/01/20 13:14:46;;;;;;;3.30;1.50;;;3.30;92.10;;;;;;6305974;22;20003;-72
2023/01/20 13:17:37;;;;;;;2.72;1.30;;;3.20;92.00;;;;;;6307460;22;20081;-72
2023/01/20 13:20:12;;;;;;;2.85;1.45;;;3.30;92.00;;;;;;6279220;22;20378;-72
2023/01/20 13:22:38;;;;;;;2.65;1.30;;;3.20;92.00;;;;;;6304634;22;20014;-72
2023/01/20 13:25:06;;;;;;;1.88;1.10;;;3.20;92.00;;;;;;6307260;22;20011;-72
2023/01/20 13:27:36;;;;;;;1.95;1.00;;;3.30;92.10;;;;;;6280059;22;20141;-72
2023/01/20 13:30:04;;;;;;;2.72;1.27;;;3.30;92.10;;;;;;6307293;22;20010;-72